Time;durP1;ratioP1;P1;durP2;ratioP2;P2;SDS_P1;SDS_P2;PMS_P1;PMS_P2;Temp;Humidity;BMP_temperature;BMP_pressure;BME280_temperature;BME280_humidity;BME280_pressure;Samples;Min_cycle;Max_cycle;Signal;HPM_P1;HPM_P2
2023/03/25 00:00:17;;;;;;;4.45;2.40;;;11.10;99.90;;;;;;2094283;28;20119;-68
2023/03/25 00:01:18;;;;;;;5.75;2.70;;;11.00;99.90;;;;;;2094167;28;20036;-69
2023/03/25 00:02:23;;;;;;;6.15;2.60;;;11.00;99.90;;;;;;2098348;28;20040;-68
2023/03/25 00:03:29;;;;;;;6.65;2.78;;;11.00;99.90;;;;;;2084152;28;20033;-67
2023/03/25 00:04:31;;;;;;;5.18;2.75;;;11.00;99.90;;;;;;2084435;28;20029;-68
2023/03/25 00:05:31;;;;;;;6.25;2.72;;;10.90;99.90;;;;;;2098740;28;20032;-68
2023/03/25 00:06:33;;;;;;;5.38;2.63;;;10.90;99.90;;;;;;2085150;28;20614;-68
2023/03/25 00:07:35;;;;;;;6.38;2.90;;;10.90;99.90;;;;;;2088935;28;20031;-67
2023/03/25 00:08:36;;;;;;;4.93;2.70;;;10.90;99.90;;;;;;2095140;28;20020;-70
2023/03/25 00:09:37;;;;;;;5.53;2.70;;;10.90;99.90;;;;;;2092636;28;20482;-69
2023/03/25 00:10:38;;;;;;;7.43;2.83;;;10.80;99.90;;;;;;2085994;28;20037;-68
2023/03/25 00:11:38;;;;;;;7.15;2.67;;;10.80;99.90;;;;;;2089797;28;20104;-68
2023/03/25 00:12:39;;;;;;;6.70;3.03;;;10.80;99.90;;;;;;2097562;28;20028;-68
2023/03/25 00:13:41;;;;;;;6.82;2.90;;;10.80;99.90;;;;;;2098923;28;20444;-68
2023/03/25 00:14:42;;;;;;;5.57;2.80;;;10.80;99.90;;;;;;2097478;28;20021;-68
2023/03/25 00:15:44;;;;;;;4.68;2.88;;;10.90;99.90;;;;;;2086699;28;20040;-68
2023/03/25 00:16:47;;;;;;;6.68;3.00;;;10.90;99.90;;;;;;2091871;28;20020;-69
2023/03/25 00:17:47;;;;;;;4.88;2.72;;;10.90;99.90;;;;;;2091813;28;20020;-69
2023/03/25 00:18:48;;;;;;;7.07;2.90;;;10.80;99.90;;;;;;2098714;28;20020;-69
2023/03/25 00:19:50;;;;;;;6.35;2.97;;;10.80;99.90;;;;;;2089938;28;20507;-69
2023/03/25 00:20:52;;;;;;;6.85;2.97;;;10.80;99.90;;;;;;2078337;28;20033;-69
2023/03/25 00:21:53;;;;;;;5.25;2.78;;;10.80;99.90;;;;;;2091858;28;20020;-69
2023/03/25 00:22:53;;;;;;;7.07;3.10;;;10.80;99.90;;;;;;2098722;28;20548;-69
2023/03/25 00:23:54;;;;;;;7.47;3.17;;;10.70;99.90;;;;;;2093891;28;20387;-69
2023/03/25 00:24:54;;;;;;;5.22;2.75;;;10.80;99.90;;;;;;2089141;28;20158;-69
2023/03/25 00:25:59;;;;;;;7.30;3.03;;;10.80;99.90;;;;;;2084611;28;20037;-69
2023/03/25 00:27:00;;;;;;;7.70;3.35;;;10.80;99.90;;;;;;2098900;28;20069;-69
2023/03/25 00:28:00;;;;;;;7.30;3.15;;;10.80;99.90;;;;;;2089489;28;20036;-70
2023/03/25 00:29:01;;;;;;;6.65;3.10;;;10.80;99.90;;;;;;2089935;28;20502;-69
2023/03/25 00:30:02;;;;;;;8.23;2.97;;;10.70;99.90;;;;;;2089670;28;20024;-69
2023/03/25 00:31:11;;;;;;;5.38;2.70;;;10.70;99.90;;;;;;2083633;28;20067;-69
2023/03/25 00:32:14;;;;;;;6.75;2.80;;;10.70;99.90;;;;;;2076725;28;20056;-69
2023/03/25 00:33:17;;;;;;;7.55;2.92;;;10.70;99.90;;;;;;2090187;28;20029;-69
2023/03/25 00:34:19;;;;;;;5.00;2.70;;;10.70;99.90;;;;;;2094508;28;20355;-68
2023/03/25 00:35:20;;;;;;;7.05;3.00;;;10.70;99.90;;;;;;2094376;28;20036;-69
2023/03/25 00:36:21;;;;;;;7.22;2.60;;;10.70;99.90;;;;;;2084857;28;20036;-69
2023/03/25 00:37:24;;;;;;;4.45;2.75;;;10.70;99.90;;;;;;2089670;28;20091;-68
2023/03/25 00:38:32;;;;;;;8.02;2.92;;;10.70;99.90;;;;;;2087385;28;20052;-68
2023/03/25 00:39:32;;;;;;;6.00;2.80;;;10.70;99.90;;;;;;2088879;28;20032;-68
2023/03/25 00:40:33;;;;;;;6.30;2.75;;;10.60;99.90;;;;;;2089817;28;20031;-69
2023/03/25 00:41:35;;;;;;;8.88;2.95;;;10.60;99.90;;;;;;2081543;28;20059;-69
2023/03/25 00:42:36;;;;;;;5.13;2.63;;;10.60;99.90;;;;;;2090242;28;20024;-69
2023/03/25 00:43:37;;;;;;;5.30;2.67;;;10.60;99.90;;;;;;2101045;28;20024;-69
2023/03/25 00:44:38;;;;;;;6.68;3.00;;;10.60;99.90;;;;;;2098905;28;20077;-69
2023/03/25 00:45:39;;;;;;;7.03;2.90;;;10.60;99.90;;;;;;2085370;28;20025;-68
2023/03/25 00:46:39;;;;;;;7.93;3.13;;;10.60;99.90;;;;;;2076491;28;20028;-69
2023/03/25 00:47:40;;;;;;;5.70;2.70;;;10.60;99.90;;;;;;2079183;28;20812;-69
2023/03/25 00:48:42;;;;;;;5.82;3.03;;;10.60;99.90;;;;;;2090045;28;20028;-68
2023/03/25 00:49:43;;;;;;;7.68;3.00;;;10.60;99.90;;;;;;2084978;28;20526;-69
2023/03/25 00:50:45;;;;;;;6.20;3.00;;;10.60;99.90;;;;;;2085861;28;20036;-68
2023/03/25 00:51:45;;;;;;;12.07;2.83;;;10.60;99.90;;;;;;2087143;28;20025;-68
2023/03/25 00:52:50;;;;;;;5.53;2.80;;;10.70;99.90;;;;;;2080962;28;20485;-68
2023/03/25 00:53:53;;;;;;;6.22;2.72;;;10.70;99.90;;;;;;2078517;28;20031;-69
2023/03/25 00:54:53;;;;;;;4.72;2.75;;;10.70;99.90;;;;;;2085732;28;20033;-69
2023/03/25 00:55:57;;;;;;;8.63;2.95;;;10.70;99.90;;;;;;2079304;28;20033;-68
2023/03/25 00:56:57;;;;;;;7.32;2.92;;;10.70;99.90;;;;;;2079753;28;20083;-68
2023/03/25 00:57:58;;;;;;;8.75;3.15;;;10.70;99.90;;;;;;2085559;28;20929;-68
2023/03/25 00:58:59;;;;;;;6.55;2.90;;;10.70;99.90;;;;;;2094091;28;20070;-69
2023/03/25 01:00:00;;;;;;;8.93;3.22;;;10.70;99.90;;;;;;2089361;28;20038;-68
2023/03/25 01:01:11;;;;;;;6.38;2.65;;;10.70;99.90;;;;;;2092028;28;20021;-68
2023/03/25 01:02:12;;;;;;;7.10;3.00;;;10.70;99.90;;;;;;2086473;28;20499;-68
2023/03/25 01:03:14;;;;;;;6.65;3.00;;;10.70;99.90;;;;;;2095977;28;20103;-68
2023/03/25 01:04:15;;;;;;;5.45;2.67;;;10.70;99.90;;;;;;2089880;28;20028;-68
2023/03/25 01:05:16;;;;;;;8.80;2.95;;;10.70;99.90;;;;;;2090018;28;20023;-68
2023/03/25 01:06:20;;;;;;;7.93;3.03;;;10.80;99.90;;;;;;2098990;28;20031;-68
2023/03/25 01:07:20;;;;;;;5.72;2.88;;;10.70;99.90;;;;;;2100416;28;20169;-69
2023/03/25 01:08:28;;;;;;;5.85;2.75;;;10.80;99.90;;;;;;2090954;28;20036;-68
2023/03/25 01:09:30;;;;;;;6.22;2.75;;;10.80;99.90;;;;;;2085058;28;20447;-69
2023/03/25 01:10:30;;;;;;;8.43;3.15;;;10.70;99.90;;;;;;2086868;28;20053;-68
2023/03/25 01:11:33;;;;;;;6.30;2.85;;;10.80;99.90;;;;;;2082822;28;20033;-68
2023/03/25 01:12:34;;;;;;;6.55;2.72;;;10.70;99.90;;;;;;2085348;28;20511;-68
2023/03/25 01:13:35;;;;;;;6.20;3.00;;;10.70;99.90;;;;;;2082844;28;20035;-70
2023/03/25 01:14:36;;;;;;;7.65;2.90;;;10.70;99.90;;;;;;2086399;28;20036;-69
2023/03/25 01:15:38;;;;;;;5.72;2.75;;;10.70;99.90;;;;;;2091137;28;20076;-68
2023/03/25 01:16:39;;;;;;;8.30;3.00;;;10.60;99.90;;;;;;2077518;28;20045;-79
2023/03/25 01:17:40;;;;;;;9.30;3.17;;;10.60;99.90;;;;;;2087437;28;20033;-77
2023/03/25 01:18:40;;;;;;;7.93;3.17;;;10.60;99.90;;;;;;2083935;28;20405;-79
2023/03/25 01:19:41;;;;;;;5.70;3.03;;;10.60;99.90;;;;;;2088565;28;20060;-79
2023/03/25 01:20:42;;;;;;;7.07;3.20;;;10.50;99.90;;;;;;2091089;28;20052;-78
2023/03/25 01:21:44;;;;;;;7.97;3.15;;;10.50;99.90;;;;;;2087386;28;20110;-80
2023/03/25 01:22:44;;;;;;;7.35;2.88;;;10.50;99.90;;;;;;2083899;28;20107;-80
2023/03/25 01:23:45;;;;;;;5.70;2.95;;;10.50;99.90;;;;;;2087479;28;20087;-80
2023/03/25 01:24:45;;;;;;;5.13;2.55;;;10.50;99.90;;;;;;2091135;28;20033;-80
2023/03/25 01:25:47;;;;;;;10.50;3.50;;;10.50;99.90;;;;;;2091421;28;20506;-79
2023/03/25 01:26:49;;;;;;;9.07;3.17;;;10.40;99.90;;;;;;2093692;28;20028;-80
2023/03/25 01:27:50;;;;;;;6.85;2.90;;;10.40;99.90;;;;;;2086269;28;20317;-79
2023/03/25 01:28:50;;;;;;;5.95;2.88;;;10.40;99.90;;;;;;2085443;28;20032;-79
2023/03/25 01:29:53;;;;;;;7.38;3.10;;;10.40;99.90;;;;;;2096865;28;20016;-75
2023/03/25 01:31:03;;;;;;;5.07;2.70;;;10.40;99.90;;;;;;2102396;28;20027;-79
2023/03/25 01:32:05;;;;;;;6.82;3.20;;;10.40;99.90;;;;;;2076567;28;20029;-78
2023/03/25 01:33:05;;;;;;;11.88;3.10;;;10.40;99.90;;;;;;2078272;28;20535;-78
2023/03/25 01:34:07;;;;;;;7.55;2.90;;;10.50;99.90;;;;;;2099996;28;20052;-79
2023/03/25 01:35:09;;;;;;;6.07;2.80;;;10.50;99.90;;;;;;2099199;28;20355;-77
2023/03/25 01:36:11;;;;;;;5.18;3.00;;;10.40;99.90;;;;;;2101991;28;20402;-79
2023/03/25 01:37:12;;;;;;;7.40;3.20;;;10.50;99.90;;;;;;2076223;28;20021;-78
2023/03/25 01:38:13;;;;;;;8.13;3.25;;;10.50;99.90;;;;;;2082712;28;20039;-78
2023/03/25 01:39:17;;;;;;;5.63;2.97;;;10.60;99.90;;;;;;2095742;28;20518;-79
2023/03/25 01:40:22;;;;;;;6.15;2.80;;;10.70;99.90;;;;;;2100037;28;20544;-78
2023/03/25 01:41:23;;;;;;;5.75;3.00;;;10.70;99.90;;;;;;2088726;28;20116;-78
2023/03/25 01:42:24;;;;;;;7.30;3.20;;;10.70;99.90;;;;;;2076824;28;20034;-78
2023/03/25 01:43:24;;;;;;;7.00;2.80;;;10.70;99.90;;;;;;2091044;28;20032;-78
2023/03/25 01:44:26;;;;;;;7.43;3.10;;;10.70;99.90;;;;;;2099131;28;20072;-79
2023/03/25 01:45:31;;;;;;;9.10;3.25;;;10.70;99.90;;;;;;2098154;28;20054;-78
2023/03/25 01:46:33;;;;;;;7.43;3.28;;;10.70;99.90;;;;;;2094283;28;20016;-78
2023/03/25 01:47:34;;;;;;;8.77;3.28;;;10.70;99.90;;;;;;2086872;28;20132;-78
2023/03/25 01:48:39;;;;;;;6.82;3.10;;;10.70;99.90;;;;;;2084684;28;20041;-77
2023/03/25 01:49:43;;;;;;;7.10;3.22;;;10.70;99.90;;;;;;2097962;28;20067;-77
2023/03/25 01:50:48;;;;;;;7.68;3.20;;;10.70;99.90;;;;;;2095410;28;20021;-78
2023/03/25 01:52:04;;;;;;;7.18;3.10;;;10.70;99.90;;;;;;2102152;28;20020;-77
2023/03/25 01:53:06;;;;;;;5.18;3.08;;;10.70;99.90;;;;;;2081908;28;20029;-77
2023/03/25 01:54:08;;;;;;;8.95;3.00;;;10.70;99.90;;;;;;2078279;28;20113;-78
2023/03/25 01:55:09;;;;;;;6.47;3.15;;;10.70;99.90;;;;;;2093117;28;20024;-78
2023/03/25 01:56:14;;;;;;;6.05;3.20;;;10.70;99.90;;;;;;2083607;28;20054;-79
2023/03/25 01:57:19;;;;;;;6.40;2.92;;;10.70;99.90;;;;;;2094245;28;20292;-78
2023/03/25 01:58:21;;;;;;;7.22;2.90;;;10.70;99.90;;;;;;2100064;28;20036;-78
2023/03/25 01:59:25;;;;;;;6.50;3.10;;;10.70;99.90;;;;;;2100586;28;20032;-78
2023/03/25 02:00:26;;;;;;;4.80;2.83;;;10.70;99.90;;;;;;2079187;28;20040;-79
2023/03/25 02:01:27;;;;;;;6.70;3.00;;;10.70;99.90;;;;;;2084642;28;20507;-78
2023/03/25 02:02:35;;;;;;;8.05;3.10;;;10.60;99.90;;;;;;2091104;28;20033;-78
2023/03/25 02:03:36;;;;;;;5.40;2.83;;;10.60;99.90;;;;;;2073012;28;20510;-78
2023/03/25 02:04:57;;;;;;;4.93;3.10;;;10.60;99.90;;;;;;2074787;28;20064;-78
2023/03/25 02:06:01;;;;;;;5.43;2.65;;;10.60;99.90;;;;;;2089098;28;20029;-79
2023/03/25 02:07:02;;;;;;;5.85;3.25;;;10.60;99.90;;;;;;2099562;28;20035;-77
2023/03/25 02:08:07;;;;;;;5.60;3.05;;;10.60;99.90;;;;;;2097621;28;20040;-78
2023/03/25 02:09:12;;;;;;;8.73;3.53;;;10.60;99.90;;;;;;2089061;28;20107;-78
2023/03/25 02:10:12;;;;;;;6.75;3.17;;;10.60;99.90;;;;;;2078516;28;20119;-79
2023/03/25 02:11:13;;;;;;;8.35;3.28;;;10.60;99.90;;;;;;2091210;28;20032;-78
2023/03/25 02:12:14;;;;;;;7.00;3.30;;;10.60;99.90;;;;;;2091327;28;20663;-78
2023/03/25 02:13:15;;;;;;;7.18;3.50;;;10.60;99.90;;;;;;2097963;28;20101;-78
2023/03/25 02:14:23;;;;;;;7.32;3.05;;;10.60;99.90;;;;;;2096003;28;20050;-78
2023/03/25 02:15:24;;;;;;;7.63;3.38;;;10.60;99.90;;;;;;2095200;28;20028;-76
2023/03/25 02:16:33;;;;;;;7.70;3.10;;;10.60;99.90;;;;;;2089060;28;20039;-78
2023/03/25 02:17:52;;;;;;;8.20;3.20;;;10.60;99.90;;;;;;2086976;28;20047;-76
2023/03/25 02:19:31;;;;;;;4.55;3.10;;;10.60;99.90;;;;;;2093214;28;20020;-78
2023/03/25 02:20:48;;;;;;;6.70;2.95;;;10.60;99.90;;;;;;2096946;28;20050;-77
2023/03/25 02:22:37;;;;;;;6.50;2.90;;;10.60;99.90;;;;;;2095428;28;20032;-77
2023/03/25 02:24:16;;;;;;;4.97;3.05;;;10.60;99.90;;;;;;2093728;28;20158;-78
2023/03/25 02:25:59;;;;;;;5.38;2.80;;;10.60;99.90;;;;;;2093142;28;20027;-77
2023/03/25 02:27:25;;;;;;;5.82;3.05;;;10.60;99.90;;;;;;2077623;28;20021;-77
2023/03/25 02:28:54;;;;;;;8.13;3.00;;;10.60;99.90;;;;;;2079372;28;20032;-78
2023/03/25 02:30:15;;;;;;;6.70;3.13;;;10.60;99.90;;;;;;2089481;28;20098;-78
2023/03/25 02:31:43;;;;;;;6.15;2.90;;;10.60;99.90;;;;;;2095375;28;20565;-77
2023/03/25 02:32:44;;;;;;;8.25;3.22;;;10.60;99.90;;;;;;2087381;28;20028;-78
2023/03/25 02:33:52;;;;;;;8.40;3.08;;;10.60;99.90;;;;;;2084651;28;20835;-78
2023/03/25 02:35:11;;;;;;;5.32;2.72;;;10.60;99.90;;;;;;2084653;28;20155;-78
2023/03/25 02:36:48;;;;;;;6.68;2.97;;;10.60;99.90;;;;;;2071740;28;20026;-78
2023/03/25 02:37:59;;;;;;;6.65;2.85;;;10.60;99.90;;;;;;2077882;28;20032;-79
2023/03/25 02:39:02;;;;;;;5.72;2.78;;;10.70;99.90;;;;;;2081328;28;20027;-79
2023/03/25 02:40:18;;;;;;;7.18;2.60;;;10.70;99.90;;;;;;2089931;28;20036;-79
2023/03/25 02:41:26;;;;;;;6.82;2.83;;;10.70;99.90;;;;;;2086061;28;20025;-77
2023/03/25 02:42:30;;;;;;;;;;;10.70;99.90;;;;;;2094543;28;20033;-78
2023/03/25 02:43:38;;;;;;;4.80;2.50;;;10.70;99.90;;;;;;2092465;28;19967;-79
2023/03/25 02:44:46;;;;;;;5.07;2.40;;;10.70;99.90;;;;;;2084212;28;20036;-80
2023/03/25 02:45:51;;;;;;;5.75;2.65;;;10.70;99.90;;;;;;2094986;28;20367;-79
2023/03/25 02:46:56;;;;;;;6.10;2.65;;;10.70;99.90;;;;;;2082410;28;20456;-79
2023/03/25 02:48:09;;;;;;;4.70;2.67;;;10.80;99.90;;;;;;2090415;28;20100;-79
2023/03/25 02:49:25;;;;;;;4.35;2.53;;;10.80;99.90;;;;;;2091299;28;20051;-78
2023/03/25 02:50:33;;;;;;;6.25;2.65;;;10.80;99.90;;;;;;2085236;28;20062;-79
2023/03/25 02:52:08;;;;;;;7.32;2.88;;;10.80;99.90;;;;;;2096748;28;20039;-79
2023/03/25 02:53:14;;;;;;;4.40;2.60;;;10.80;99.90;;;;;;2089505;28;20035;-79
2023/03/25 02:54:17;;;;;;;6.68;2.60;;;10.80;99.90;;;;;;2091329;28;20416;-76
2023/03/25 02:55:21;;;;;;;5.50;2.72;;;10.80;99.90;;;;;;2091714;28;20037;-78
2023/03/25 02:56:24;;;;;;;5.85;2.60;;;10.80;99.90;;;;;;2091340;28;20353;-79
2023/03/25 02:57:29;;;;;;;5.85;2.30;;;10.80;99.90;;;;;;2080221;28;20040;-78
2023/03/25 02:58:31;;;;;;;5.88;2.53;;;10.80;99.90;;;;;;2084712;28;20122;-78
2023/03/25 02:59:37;;;;;;;6.40;2.67;;;10.80;99.90;;;;;;2094135;28;20475;-79
2023/03/25 03:00:38;;;;;;;8.00;3.03;;;10.80;99.90;;;;;;2095515;28;20043;-77
2023/03/25 03:01:40;;;;;;;5.63;2.38;;;10.80;99.90;;;;;;2095380;28;20051;-77
2023/03/25 03:02:52;;;;;;;3.95;2.50;;;10.80;99.90;;;;;;2091954;28;20028;-77
2023/03/25 03:03:53;;;;;;;5.63;2.63;;;10.80;99.90;;;;;;2078497;28;20311;-77
2023/03/25 03:04:55;;;;;;;5.57;2.72;;;10.80;99.90;;;;;;2078648;28;20025;-78
2023/03/25 03:05:59;;;;;;;6.43;2.70;;;10.80;99.90;;;;;;2085778;28;20741;-77
2023/03/25 03:07:00;;;;;;;5.60;2.55;;;10.70;99.90;;;;;;2084920;28;20092;-76
2023/03/25 03:08:29;;;;;;;4.15;2.67;;;10.80;99.90;;;;;;2082467;28;20779;-77
2023/03/25 03:09:44;;;;;;;5.10;2.50;;;10.70;99.90;;;;;;2072500;28;20029;-78
2023/03/25 03:11:01;;;;;;;5.88;2.70;;;10.70;99.90;;;;;;2086354;28;20499;-78
2023/03/25 03:12:27;;;;;;;6.82;2.78;;;10.70;99.90;;;;;;2078265;28;20464;-77
2023/03/25 03:13:52;;;;;;;3.53;2.28;;;10.70;99.90;;;;;;2094081;28;20077;-77
2023/03/25 03:15:14;;;;;;;5.15;2.80;;;10.70;99.90;;;;;;2082692;28;20029;-77
2023/03/25 03:16:38;;;;;;;4.85;2.30;;;10.70;99.90;;;;;;2087599;28;20016;-77
2023/03/25 03:17:57;;;;;;;5.03;2.25;;;10.70;99.90;;;;;;2085375;28;20036;-77
2023/03/25 03:19:08;;;;;;;2.45;1.88;;;10.70;99.90;;;;;;2099568;28;20081;-77
2023/03/25 03:20:09;;;;;;;3.95;2.38;;;10.70;99.90;;;;;;2099416;28;20044;-76
2023/03/25 03:21:15;;;;;;;3.67;2.20;;;10.70;99.90;;;;;;2099550;28;20108;-76
2023/03/25 03:22:51;;;;;;;4.72;2.70;;;10.70;99.90;;;;;;2098886;28;20490;-78
2023/03/25 03:23:59;;;;;;;6.65;2.63;;;10.60;99.90;;;;;;2083376;28;20055;-78
2023/03/25 03:25:23;;;;;;;5.00;2.55;;;10.60;99.90;;;;;;2087718;28;20052;-69
2023/03/25 03:26:47;;;;;;;5.85;2.22;;;10.60;99.90;;;;;;2079346;28;20046;-73
2023/03/25 03:27:55;;;;;;;4.75;2.40;;;10.60;99.90;;;;;;2080734;28;20097;-73
2023/03/25 03:29:16;;;;;;;3.25;2.42;;;10.60;99.90;;;;;;2099457;28;20711;-78
2023/03/25 03:30:26;;;;;;;3.58;2.30;;;10.60;99.90;;;;;;2094557;28;20495;-78
2023/03/25 03:31:51;;;;;;;5.43;2.97;;;10.60;99.90;;;;;;2099041;28;20028;-80
2023/03/25 03:33:14;;;;;;;3.97;2.55;;;10.60;99.90;;;;;;2093101;28;20086;-80
2023/03/25 03:34:35;;;;;;;5.57;2.63;;;10.60;99.90;;;;;;2095445;28;20036;-80
2023/03/25 03:35:41;;;;;;;5.38;2.60;;;10.60;99.90;;;;;;2087343;28;20131;-78
2023/03/25 03:36:47;;;;;;;4.28;2.28;;;10.60;99.90;;;;;;2087349;28;20044;-80
2023/03/25 03:37:55;;;;;;;5.20;2.50;;;10.60;99.90;;;;;;2096607;28;20137;-80
2023/03/25 03:39:06;;;;;;;5.03;2.60;;;10.60;99.90;;;;;;2075868;28;20128;-80
2023/03/25 03:40:11;;;;;;;5.03;2.50;;;10.60;99.90;;;;;;2081588;28;20041;-78
2023/03/25 03:41:16;;;;;;;5.45;2.60;;;10.60;99.90;;;;;;2088394;28;20032;-80
2023/03/25 03:42:31;;;;;;;4.68;2.42;;;10.60;99.90;;;;;;2086059;28;20460;-79
2023/03/25 03:43:52;;;;;;;4.93;2.38;;;10.60;99.90;;;;;;2093654;28;20590;-79
2023/03/25 03:44:59;;;;;;;4.65;2.45;;;10.50;99.90;;;;;;2080498;28;20189;-77
2023/03/25 03:46:12;;;;;;;5.60;2.38;;;10.60;99.90;;;;;;2086818;28;20027;-80
2023/03/25 03:47:22;;;;;;;5.00;2.22;;;10.50;99.90;;;;;;2094672;28;20467;-80
2023/03/25 03:48:32;;;;;;;5.10;2.30;;;10.60;99.90;;;;;;2094615;28;20021;-80
2023/03/25 03:49:40;;;;;;;4.47;2.13;;;10.50;99.90;;;;;;2092178;28;20020;-80
2023/03/25 03:51:03;;;;;;;6.40;2.50;;;10.60;99.90;;;;;;2092225;28;20024;-79
2023/03/25 03:52:15;;;;;;;5.32;2.17;;;10.60;99.90;;;;;;2092770;28;20749;-82
2023/03/25 03:53:57;;;;;;;5.75;2.28;;;10.60;99.90;;;;;;2086855;28;20114;-80
2023/03/25 03:55:02;;;;;;;3.88;2.10;;;10.60;99.90;;;;;;2071421;28;20120;-80
2023/03/25 03:56:15;;;;;;;4.50;2.10;;;10.60;99.90;;;;;;2086785;28;20130;-81
2023/03/25 03:57:28;;;;;;;5.53;2.10;;;10.60;99.90;;;;;;2085598;28;20037;-80
2023/03/25 03:58:34;;;;;;;4.65;1.90;;;10.60;99.90;;;;;;2078012;28;20076;-79
2023/03/25 03:59:52;;;;;;;5.95;2.38;;;10.50;99.90;;;;;;2086143;28;20709;-79
2023/03/25 04:01:11;;;;;;;3.95;2.35;;;10.50;99.90;;;;;;2085482;28;20115;-79
2023/03/25 04:02:33;;;;;;;4.95;2.30;;;10.50;99.90;;;;;;2086963;28;20027;-78
2023/03/25 04:03:43;;;;;;;5.40;2.10;;;10.50;99.90;;;;;;2084401;28;20773;-78
2023/03/25 04:04:43;;;;;;;3.78;2.20;;;10.50;99.90;;;;;;2088689;28;20551;-79
2023/03/25 04:05:53;;;;;;;4.53;2.08;;;10.50;99.90;;;;;;2094030;28;20052;-76
2023/03/25 04:07:14;;;;;;;3.42;2.10;;;10.50;99.90;;;;;;2095414;28;20032;-77
2023/03/25 04:08:27;;;;;;;3.30;1.80;;;10.50;99.90;;;;;;2096060;28;20090;-79
2023/03/25 04:10:02;;;;;;;3.67;1.80;;;10.50;99.90;;;;;;2075385;28;20029;-77
2023/03/25 04:11:08;;;;;;;5.75;2.10;;;10.50;99.90;;;;;;2086343;28;20021;-79
2023/03/25 04:12:24;;;;;;;4.30;1.90;;;10.50;99.90;;;;;;2093498;28;20058;-78
2023/03/25 04:13:30;;;;;;;3.13;1.83;;;10.50;99.90;;;;;;2099262;28;20090;-79
2023/03/25 04:14:31;;;;;;;4.60;2.00;;;10.50;99.90;;;;;;2098945;28;20024;-78
2023/03/25 04:15:32;;;;;;;2.97;1.65;;;10.50;99.90;;;;;;2099488;28;20043;-78
2023/03/25 04:16:32;;;;;;;3.95;1.70;;;10.50;99.90;;;;;;2099374;28;20509;-79
2023/03/25 04:17:33;;;;;;;4.32;1.60;;;10.50;99.90;;;;;;2101644;28;20031;-79
2023/03/25 04:18:34;;;;;;;3.65;1.80;;;10.50;99.90;;;;;;2098988;28;20073;-80
2023/03/25 04:19:34;;;;;;;3.35;1.60;;;10.50;99.90;;;;;;2092696;28;20390;-79
2023/03/25 04:20:35;;;;;;;3.58;1.80;;;10.50;99.90;;;;;;2095933;28;20096;-79
2023/03/25 04:21:35;;;;;;;5.35;1.65;;;10.50;99.90;;;;;;2087925;28;20056;-80
2023/03/25 04:22:37;;;;;;;3.38;1.50;;;10.50;99.90;;;;;;2081031;28;20040;-81
2023/03/25 04:23:40;;;;;;;3.33;1.63;;;10.50;99.90;;;;;;2090342;28;20032;-78
2023/03/25 04:24:40;;;;;;;4.32;1.50;;;10.50;99.90;;;;;;2099410;28;20034;-78
2023/03/25 04:25:48;;;;;;;3.35;1.50;;;10.50;99.90;;;;;;2100524;28;20485;-79
2023/03/25 04:26:51;;;;;;;3.92;1.40;;;10.50;99.90;;;;;;2101329;28;20036;-79
2023/03/25 04:27:57;;;;;;;1.95;1.38;;;10.50;99.90;;;;;;2100667;28;20028;-77
2023/03/25 04:29:00;;;;;;;2.65;1.38;;;10.50;99.90;;;;;;2093176;28;20040;-79
2023/03/25 04:30:02;;;;;;;2.95;1.45;;;10.50;99.90;;;;;;2094170;28;20036;-77
2023/03/25 04:31:06;;;;;;;3.10;1.40;;;10.50;99.90;;;;;;2098887;28;20032;-77
2023/03/25 04:32:09;;;;;;;4.10;1.45;;;10.50;99.90;;;;;;2098779;28;20527;-79
2023/03/25 04:33:11;;;;;;;3.25;1.70;;;10.50;99.90;;;;;;2098706;28;20069;-78
2023/03/25 04:34:15;;;;;;;3.35;1.40;;;10.50;99.90;;;;;;2087537;28;20044;-79
2023/03/25 04:35:18;;;;;;;3.40;1.60;;;10.50;99.90;;;;;;2085255;28;20028;-78
2023/03/25 04:36:18;;;;;;;3.33;1.40;;;10.50;99.90;;;;;;2088514;28;20032;-77
2023/03/25 04:37:19;;;;;;;2.20;1.40;;;10.50;99.90;;;;;;2081614;28;20116;-77
2023/03/25 04:38:20;;;;;;;2.65;1.50;;;10.50;99.90;;;;;;2087908;28;20056;-79
2023/03/25 04:39:24;;;;;;;3.55;1.42;;;10.50;99.90;;;;;;2094057;28;20128;-77
2023/03/25 04:40:25;;;;;;;1.42;1.20;;;10.50;99.90;;;;;;2100451;28;20059;-76
2023/03/25 04:41:27;;;;;;;2.55;1.33;;;10.50;99.90;;;;;;2094063;28;20367;-78
2023/03/25 04:42:36;;;;;;;3.58;1.40;;;10.50;99.90;;;;;;2094118;28;20607;-79
2023/03/25 04:43:38;;;;;;;2.47;1.30;;;10.50;99.90;;;;;;2099887;28;20040;-79
2023/03/25 04:44:38;;;;;;;4.28;1.50;;;10.50;99.90;;;;;;2100471;28;20040;-78
2023/03/25 04:45:41;;;;;;;3.25;1.40;;;10.50;99.90;;;;;;2095946;28;20036;-79
2023/03/25 04:46:42;;;;;;;3.78;1.38;;;10.50;99.90;;;;;;2102514;28;20035;-80
2023/03/25 04:47:48;;;;;;;2.58;1.30;;;10.50;99.90;;;;;;2098824;28;20025;-78
2023/03/25 04:48:48;;;;;;;3.92;1.40;;;10.50;99.90;;;;;;2092272;28;20079;-78
2023/03/25 04:49:49;;;;;;;4.25;1.40;;;10.50;99.90;;;;;;2097042;28;20028;-79
2023/03/25 04:50:50;;;;;;;3.05;1.50;;;10.50;99.90;;;;;;2088283;28;20107;-77
2023/03/25 04:51:52;;;;;;;2.83;1.25;;;10.50;99.90;;;;;;2085123;28;20385;-78
2023/03/25 04:52:56;;;;;;;3.35;1.38;;;10.50;99.90;;;;;;2087009;28;20623;-77
2023/03/25 04:53:57;;;;;;;4.13;1.27;;;10.50;99.90;;;;;;2095838;28;20058;-77
2023/03/25 04:54:57;;;;;;;2.72;1.20;;;10.50;99.90;;;;;;2087171;28;20590;-77
2023/03/25 04:55:59;;;;;;;3.15;1.13;;;10.50;99.90;;;;;;2086509;28;20059;-77
2023/03/25 04:57:00;;;;;;;2.97;1.40;;;10.50;99.90;;;;;;2100317;28;20028;-78
2023/03/25 04:58:00;;;;;;;2.50;1.50;;;10.50;99.90;;;;;;2090930;28;20445;-77
2023/03/25 04:59:01;;;;;;;2.33;1.30;;;10.50;99.90;;;;;;2081042;28;20063;-79
2023/03/25 05:00:05;;;;;;;3.22;1.17;;;10.50;99.90;;;;;;2090402;28;20043;-77
2023/03/25 05:01:10;;;;;;;3.45;1.20;;;10.50;99.90;;;;;;2098880;28;20024;-77
2023/03/25 05:02:12;;;;;;;2.22;1.17;;;10.50;99.90;;;;;;2086596;28;20088;-77
2023/03/25 05:03:14;;;;;;;2.47;1.30;;;10.50;99.90;;;;;;2093688;28;20020;-78
2023/03/25 05:04:16;;;;;;;2.85;1.30;;;10.50;99.90;;;;;;2094164;28;20039;-78
2023/03/25 05:05:19;;;;;;;3.28;1.38;;;10.50;99.90;;;;;;2100316;28;20538;-78
2023/03/25 05:06:20;;;;;;;3.80;1.30;;;10.50;99.90;;;;;;2080683;28;20042;-78
2023/03/25 05:07:20;;;;;;;2.72;1.30;;;10.50;99.90;;;;;;2075674;28;20152;-71
2023/03/25 05:08:21;;;;;;;3.65;1.20;;;10.50;99.90;;;;;;2091509;28;20062;-71
2023/03/25 05:09:22;;;;;;;2.20;1.23;;;10.60;99.90;;;;;;2078985;28;20040;-72
2023/03/25 05:10:24;;;;;;;2.88;1.13;;;10.60;99.90;;;;;;2093763;28;20141;-71
2023/03/25 05:11:24;;;;;;;3.15;1.10;;;10.60;99.90;;;;;;2097581;28;20079;-72
2023/03/25 05:12:25;;;;;;;2.38;1.20;;;10.50;99.90;;;;;;2091105;28;20534;-73
2023/03/25 05:13:25;;;;;;;2.35;1.48;;;10.60;99.90;;;;;;2091407;28;20469;-70
2023/03/25 05:14:26;;;;;;;1.40;1.08;;;10.50;99.90;;;;;;2102584;28;20449;-71
2023/03/25 05:15:29;;;;;;;5.82;1.20;;;10.50;99.90;;;;;;2086517;28;20488;-72
2023/03/25 05:16:29;;;;;;;2.25;1.25;;;10.50;99.90;;;;;;2088844;28;20115;-69
2023/03/25 05:17:30;;;;;;;1.30;0.90;;;10.50;99.90;;;;;;2093501;28;20024;-69
2023/03/25 05:18:31;;;;;;;1.55;1.10;;;10.50;99.90;;;;;;2102268;28;20047;-69
2023/03/25 05:19:33;;;;;;;2.65;1.20;;;10.50;99.90;;;;;;2097745;28;20383;-68
2023/03/25 05:20:38;;;;;;;0.93;0.80;;;10.50;99.90;;;;;;2096929;28;20028;-69
2023/03/25 05:21:39;;;;;;;1.88;0.95;;;10.50;99.90;;;;;;2088641;28;20032;-68
2023/03/25 05:22:40;;;;;;;1.95;0.93;;;10.50;99.90;;;;;;2090171;28;20082;-68
2023/03/25 05:23:42;;;;;;;1.77;0.93;;;10.50;99.90;;;;;;2097061;28;20024;-68
2023/03/25 05:24:44;;;;;;;2.42;0.90;;;10.50;99.90;;;;;;2093041;28;20024;-67
2023/03/25 05:25:49;;;;;;;1.92;1.10;;;10.50;99.90;;;;;;2091844;28;20021;-68
2023/03/25 05:26:49;;;;;;;2.05;0.90;;;10.60;99.90;;;;;;2095253;28;20451;-68
2023/03/25 05:27:50;;;;;;;3.25;1.05;;;10.60;99.90;;;;;;2100094;28;20027;-68
2023/03/25 05:28:55;;;;;;;2.45;1.10;;;10.60;99.90;;;;;;2100118;28;20092;-68
2023/03/25 05:29:57;;;;;;;1.83;0.90;;;10.60;99.90;;;;;;2095488;28;20068;-69
2023/03/25 05:30:57;;;;;;;1.27;0.80;;;10.60;99.90;;;;;;2101618;28;20031;-69
2023/03/25 05:31:58;;;;;;;1.60;1.10;;;10.60;99.90;;;;;;2099333;28;20058;-69
2023/03/25 05:32:58;;;;;;;2.45;0.85;;;10.60;99.90;;;;;;2100045;28;20035;-70
2023/03/25 05:33:59;;;;;;;2.35;1.00;;;10.60;99.90;;;;;;2093461;28;20036;-69
2023/03/25 05:35:01;;;;;;;1.08;0.80;;;10.60;99.90;;;;;;2092550;28;20039;-68
2023/03/25 05:36:03;;;;;;;3.85;0.95;;;10.60;99.90;;;;;;2081582;28;20040;-68
2023/03/25 05:37:04;;;;;;;1.95;0.93;;;10.60;99.90;;;;;;2081806;28;20025;-68
2023/03/25 05:38:07;;;;;;;1.40;0.80;;;10.60;99.90;;;;;;2092675;28;20037;-68
2023/03/25 05:39:07;;;;;;;1.15;0.80;;;10.60;99.90;;;;;;2075982;28;20492;-68
2023/03/25 05:40:09;;;;;;;1.92;0.90;;;10.60;99.90;;;;;;2088463;28;20128;-70
2023/03/25 05:41:16;;;;;;;1.75;0.90;;;10.60;99.90;;;;;;2089993;28;20524;-69
2023/03/25 05:42:21;;;;;;;1.10;0.80;;;10.60;99.90;;;;;;2075585;28;20081;-69
2023/03/25 05:43:22;;;;;;;1.42;0.75;;;10.60;99.90;;;;;;2083897;28;20025;-69